MCP Paphos — 5BRR2 — position and weather

sailwx.info

Track history (hours):
 
Tides and Currents Weather Stations Pressure Air Temp Water Temp Dewpoint Dewpoint Depression Visibility Wind Speed Wind Dir Waves Ship Positions

MCP Paphos

Last reported at 2017-Nov-20 00:10 UTC. Time now 2017-Nov-23 15:07 UTC.
Position N 51°58' W 006°18'.

Length 117 m; draft 6.3 m.

Type: Cargo ship. MMSI: 209442000.

Date/timePositionNaut miles runAvg speedWind from/ knotsBaromVisibWave heightAir tempDewpointWater temp
2017-Nov-20 00:10N 51°58' W 006°18'211.5
2017-Nov-20 00:00N 51°59' W 006°17'611.3
2017-Nov-19 23:28N 52°05' W 006°13'510.9
2017-Nov-19 23:00N 52°09' W 006°09'510.3
2017-Nov-19 22:30N 52°14' W 006°06'510.1
2017-Nov-19 22:01N 52°19' W 006°05'510.0
2017-Nov-19 21:29N 52°24' W 006°04'5 9.5
2017-Nov-19 21:00N 52°29' W 006°04'5 9.3
2017-Nov-19 20:30N 52°34' W 006°04'2 3.3
2017-Nov-19 19:45N 52°36' W 006°03'1 1.7
2017-Nov-19 19:25N 52°37' W 006°03'8 0.3
2017-Nov-18 20:25N 52°40' W 005°52'714.8
2017-Nov-18 19:57N 52°33' W 005°53'614.7
2017-Nov-18 19:30N 52°27' W 005°55'814.7
2017-Nov-18 18:59N 52°19' W 005°57'714.3
2017-Nov-18 18:30N 52°12' W 005°59'  
2017-Nov-16 00:56N 39°10' W 009°51'512.8
2017-Nov-16 00:31N 39°04' W 009°51'612.7
2017-Nov-16 00:00N 38°58' W 009°51'612.7
2017-Nov-15 23:30N 38°52' W 009°50'613.0
2017-Nov-15 23:00N 38°45' W 009°50'612.6
2017-Nov-15 22:30N 38°39' W 009°50'612.5
2017-Nov-15 22:00N 38°33' W 009°49'612.2
2017-Nov-15 21:30N 38°27' W 009°47'612.3
2017-Nov-15 21:00N 38°21' W 009°46'611.8
2017-Nov-15 20:30N 38°15' W 009°44'611.7
2017-Nov-15 20:00N 38°09' W 009°43'612.1
2017-Nov-15 19:30N 38°03' W 009°41'712.5
2017-Nov-15 18:58N 37°57' W 009°39'  
Track history (hours):
 
Tides and Currents Weather Stations Pressure Air Temp Water Temp Dewpoint Dewpoint Depression Visibility Wind Speed Wind Dir Waves Ship Positions

MCP Paphos

Last reported at 2017-Nov-20 00:10 UTC. Time now 2017-Nov-23 15:07 UTC.
Position N 51°58' W 006°18'.

Length 117 m; draft 6.3 m.

Type: Cargo ship. MMSI: 209442000.

Date/timePositionNaut miles runAvg speedWind from/ knotsBaromVisibWave heightAir tempDewpointWater temp
2017-Nov-20 00:10N 51°58' W 006°18'211.5
2017-Nov-20 00:00N 51°59' W 006°17'611.3
2017-Nov-19 23:28N 52°05' W 006°13'510.9
2017-Nov-19 23:00N 52°09' W 006°09'510.3
2017-Nov-19 22:30N 52°14' W 006°06'510.1
2017-Nov-19 22:01N 52°19' W 006°05'510.0
2017-Nov-19 21:29N 52°24' W 006°04'5 9.5
2017-Nov-19 21:00N 52°29' W 006°04'5 9.3
2017-Nov-19 20:30N 52°34' W 006°04'2 3.3
2017-Nov-19 19:45N 52°36' W 006°03'1 1.7
2017-Nov-19 19:25N 52°37' W 006°03'8 0.3
2017-Nov-18 20:25N 52°40' W 005°52'714.8
2017-Nov-18 19:57N 52°33' W 005°53'614.7
2017-Nov-18 19:30N 52°27' W 005°55'814.7
2017-Nov-18 18:59N 52°19' W 005°57'714.3
2017-Nov-18 18:30N 52°12' W 005°59'  
2017-Nov-16 00:56N 39°10' W 009°51'512.8
2017-Nov-16 00:31N 39°04' W 009°51'612.7
2017-Nov-16 00:00N 38°58' W 009°51'612.7
2017-Nov-15 23:30N 38°52' W 009°50'613.0
2017-Nov-15 23:00N 38°45' W 009°50'612.6
2017-Nov-15 22:30N 38°39' W 009°50'612.5
2017-Nov-15 22:00N 38°33' W 009°49'612.2
2017-Nov-15 21:30N 38°27' W 009°47'612.3
2017-Nov-15 21:00N 38°21' W 009°46'611.8
2017-Nov-15 20:30N 38°15' W 009°44'611.7
2017-Nov-15 20:00N 38°09' W 009°43'612.1
2017-Nov-15 19:30N 38°03' W 009°41'712.5
2017-Nov-15 18:58N 37°57' W 009°39'  

Dump ship's entire track history